createdAt,value
2023-01-13T00:00:02.487Z,100853.19
2023-01-13T00:01:22.738Z,100835.91
2023-01-13T00:02:28.504Z,100838.09
2023-01-13T00:03:33.183Z,100846.72
2023-01-13T00:04:37.028Z,100845.09
2023-01-13T00:05:40.356Z,100844.53
2023-01-13T00:06:55.174Z,100846.16
2023-01-13T00:08:14.364Z,100843.75
2023-01-13T00:09:21.596Z,100850.78
2023-01-13T00:10:49.701Z,100845.66
2023-01-13T00:11:58.723Z,100849.13
2023-01-13T00:13:09.048Z,100850.50
2023-01-13T00:14:14.714Z,100850.47
2023-01-13T00:15:23.288Z,100847.78
2023-01-13T00:16:45.189Z,100849.69
2023-01-13T00:17:53.316Z,100851.56
2023-01-13T00:19:01.704Z,100858.03
2023-01-13T00:20:07.990Z,100848.34
2023-01-13T00:21:25.807Z,100849.41
2023-01-13T00:22:32.574Z,100862.63
2023-01-13T00:23:44.574Z,100869.41
2023-01-13T00:24:48.430Z,100862.66
2023-01-13T00:25:59.128Z,100855.09
2023-01-13T00:27:04.554Z,100855.88
2023-01-13T00:28:10.429Z,100852.63
2023-01-13T00:29:25.383Z,100844.56
2023-01-13T00:30:30.493Z,100846.44
2023-01-13T00:31:39.481Z,100836.19
2023-01-13T00:32:49.294Z,100831.59
2023-01-13T00:33:59.969Z,100845.91
2023-01-13T00:35:05.485Z,100847.53
2023-01-13T00:36:11.891Z,100845.66
2023-01-13T00:37:19.239Z,100841.31
2023-01-13T00:39:12.670Z,100846.16
2023-01-13T00:40:25.874Z,100850.22
2023-01-13T00:41:32.624Z,100847.81
2023-01-13T00:43:04.159Z,100839.16
2023-01-13T00:44:11.899Z,100842.94
2023-01-13T00:45:23.300Z,100837.00
2023-01-13T00:46:34.851Z,100838.38
2023-01-13T00:47:48.024Z,100837.53
2023-01-13T00:48:54.368Z,100835.91
2023-01-13T00:50:00.048Z,100829.72
2023-01-13T00:51:12.657Z,100846.44
2023-01-13T00:52:17.565Z,100844.28
2023-01-13T00:53:26.173Z,100830.00
2023-01-13T00:54:35.043Z,100830.53
2023-01-13T00:55:42.505Z,100837.00
2023-01-13T00:56:48.489Z,100835.91
2023-01-13T00:57:54.356Z,100836.47
2023-01-13T00:59:03.921Z,100841.59
2023-01-13T01:00:14.535Z,100843.78
2023-01-13T01:01:28.164Z,100834.03
2023-01-13T01:02:36.027Z,100843.22
2023-01-13T01:03:41.071Z,100845.13
2023-01-13T01:04:51.197Z,100841.31
2023-01-13T01:06:05.639Z,100830.22
2023-01-13T01:07:11.512Z,100828.91
2023-01-13T01:08:17.935Z,100828.34
2023-01-13T01:09:33.797Z,100822.94
2023-01-13T01:10:38.366Z,100826.75
2023-01-13T01:11:47.266Z,100823.50
2023-01-13T01:12:52.565Z,100818.09
2023-01-13T01:14:02.956Z,100814.84
2023-01-13T01:15:10.339Z,100811.34
2023-01-13T01:16:23.081Z,100810.53
2023-01-13T01:17:34.284Z,100813.78
2023-01-13T01:18:44.952Z,100802.41
2023-01-13T01:19:54.438Z,100808.38
2023-01-13T01:21:11.607Z,100810.00
2023-01-13T01:22:16.237Z,100802.97
2023-01-13T01:23:21.134Z,100789.72
2023-01-13T01:24:33.652Z,100794.88
2023-01-13T01:25:44.113Z,100774.88
2023-01-13T01:26:51.016Z,100788.91
2023-01-13T01:28:02.328Z,100791.63
2023-01-13T01:29:08.276Z,100800.25
2023-01-13T01:30:18.342Z,100800.28
2023-01-13T01:31:37.756Z,100790.00
2023-01-13T01:32:47.205Z,100800.00
2023-01-13T01:34:01.629Z,100797.56
2023-01-13T01:35:21.811Z,100790.28
2023-01-13T01:36:45.179Z,100792.72
2023-01-13T01:37:50.885Z,100790.56
2023-01-13T01:39:03.468Z,100791.09
2023-01-13T01:40:13.303Z,100786.75
2023-01-13T01:41:27.075Z,100788.66
2023-01-13T01:42:49.765Z,100786.47
2023-01-13T01:43:59.868Z,100792.44
2023-01-13T01:45:38.210Z,100794.88
2023-01-13T01:46:49.631Z,100797.56
2023-01-13T01:48:14.930Z,100796.75
2023-01-13T01:49:35.069Z,100787.28
2023-01-13T01:50:41.431Z,100784.31
2023-01-13T01:52:11.227Z,100796.50
2023-01-13T01:53:36.774Z,100783.25
2023-01-13T01:55:26.711Z,100775.41
2023-01-13T01:56:38.188Z,100770.03
2023-01-13T01:58:24.243Z,100773.50
2023-01-13T01:59:36.221Z,100765.97
2023-01-13T02:00:46.575Z,100766.78
2023-01-13T02:01:54.799Z,100778.63
2023-01-13T02:03:14.624Z,100771.09
2023-01-13T02:04:33.513Z,100773.25
2023-01-13T02:05:42.542Z,100754.06
2023-01-13T02:06:48.213Z,100764.06
2023-01-13T02:08:04.632Z,100766.22
2023-01-13T02:09:14.864Z,100757.56
2023-01-13T02:10:30.462Z,100751.91
2023-01-13T02:11:56.925Z,100749.47
2023-01-13T02:13:07.524Z,100740.28
2023-01-13T02:14:11.330Z,100736.50
2023-01-13T02:16:00.767Z,100727.56
2023-01-13T02:17:34.323Z,100740.81
2023-01-13T02:18:57.841Z,100742.44
2023-01-13T02:20:18.647Z,100755.66
2023-01-13T02:21:57.627Z,100755.66
2023-01-13T02:23:46.369Z,100728.94
2023-01-13T02:25:43.157Z,100734.34
2023-01-13T02:27:18.691Z,100750.28
2023-01-13T02:29:12.620Z,100755.94
2023-01-13T02:30:58.658Z,100751.63
2023-01-13T02:32:27.041Z,100757.56
2023-01-13T02:34:02.931Z,100763.53
2023-01-13T02:35:31.258Z,100760.81
2023-01-13T02:37:02.959Z,100764.59
2023-01-13T02:38:17.229Z,100764.59
2023-01-13T02:39:45.267Z,100754.31
2023-01-13T02:41:27.142Z,100752.16
2023-01-13T02:43:10.039Z,100750.03
2023-01-13T02:44:25.309Z,100747.88
2023-01-13T02:45:44.928Z,100760.81
2023-01-13T02:47:17.524Z,100747.59
2023-01-13T02:48:30.875Z,100747.28
2023-01-13T02:49:41.428Z,100739.75
2023-01-13T02:50:55.841Z,100752.69
2023-01-13T02:52:09.132Z,100741.91
2023-01-13T02:53:25.531Z,100744.34
2023-01-13T02:54:43.605Z,100744.06
2023-01-13T02:56:05.909Z,100769.47
2023-01-13T02:57:19.865Z,100752.72
2023-01-13T02:58:28.806Z,100756.75
2023-01-13T02:59:57.113Z,100751.06
2023-01-13T03:01:03.918Z,100739.75
2023-01-13T03:02:19.032Z,100746.25
2023-01-13T03:03:30.687Z,100747.56
2023-01-13T03:04:58.265Z,100745.16
2023-01-13T03:06:30.434Z,100748.94
2023-01-13T03:08:10.382Z,100750.56
2023-01-13T03:09:29.633Z,100745.69
2023-01-13T03:11:03.057Z,100747.56
2023-01-13T03:12:44.689Z,100747.84
2023-01-13T03:14:04.701Z,100745.69
2023-01-13T03:15:31.029Z,100754.59
2023-01-13T03:16:49.684Z,100758.66
2023-01-13T03:18:46.944Z,100765.13
2023-01-13T03:20:08.451Z,100762.97
2023-01-13T03:21:32.131Z,100743.50
2023-01-13T03:23:03.384Z,100749.97
2023-01-13T03:24:38.860Z,100736.47
2023-01-13T03:25:54.498Z,100741.88
2023-01-13T03:27:12.579Z,100730.03
2023-01-13T03:28:35.341Z,100725.94
2023-01-13T03:29:49.477Z,100730.00
2023-01-13T03:31:06.089Z,100733.22
2023-01-13T03:32:46.196Z,100732.19
2023-01-13T03:34:02.128Z,100728.41
2023-01-13T03:35:36.409Z,100741.91
2023-01-13T03:36:43.997Z,100731.91
2023-01-13T03:38:08.999Z,100741.91
2023-01-13T03:39:27.210Z,100754.34
2023-01-13T03:40:39.229Z,100745.16
2023-01-13T03:41:50.647Z,100748.38
2023-01-13T03:43:23.498Z,100753.25
2023-01-13T03:44:42.574Z,100750.00
2023-01-13T03:45:52.366Z,100747.81
2023-01-13T03:47:00.897Z,100741.34
2023-01-13T03:48:10.366Z,100745.41
2023-01-13T03:49:19.892Z,100741.88
2023-01-13T03:50:32.428Z,100740.53
2023-01-13T03:51:40.845Z,100735.38
2023-01-13T03:53:07.724Z,100734.31
2023-01-13T03:54:24.462Z,100735.94
2023-01-13T03:55:40.508Z,100740.25
2023-01-13T03:56:57.879Z,100736.47
2023-01-13T03:58:16.380Z,100730.53
2023-01-13T03:59:25.330Z,100735.13
2023-01-13T04:00:38.908Z,100742.44
2023-01-13T04:02:20.845Z,100738.91
2023-01-13T04:03:53.073Z,100734.31
2023-01-13T04:05:06.200Z,100737.00
2023-01-13T04:06:46.127Z,100744.81
2023-01-13T04:08:05.523Z,100738.63
2023-01-13T04:09:22.998Z,100749.97
2023-01-13T04:10:43.677Z,100757.56
2023-01-13T04:11:58.267Z,100740.81
2023-01-13T04:13:15.517Z,100745.66
2023-01-13T04:14:24.643Z,100748.63
2023-01-13T04:15:41.367Z,100745.66
2023-01-13T04:16:51.488Z,100742.19
2023-01-13T04:18:05.121Z,100746.22
2023-01-13T04:19:18.727Z,100748.91
2023-01-13T04:20:25.524Z,100751.63
2023-01-13T04:21:34.967Z,100745.69
2023-01-13T04:22:46.961Z,100748.41
2023-01-13T04:24:21.052Z,100737.06
2023-01-13T04:25:30.194Z,100743.28
2023-01-13T04:26:39.196Z,100735.16
2023-01-13T04:27:45.330Z,100746.75
2023-01-13T04:28:55.523Z,100734.59
2023-01-13T04:30:03.425Z,100738.13
2023-01-13T04:31:10.196Z,100738.94
2023-01-13T04:32:18.980Z,100730.28
2023-01-13T04:33:29.561Z,100730.84
2023-01-13T04:34:32.718Z,100737.56
2023-01-13T04:35:40.044Z,100740.31
2023-01-13T04:36:45.895Z,100734.88
2023-01-13T04:37:52.983Z,100741.91
2023-01-13T04:38:56.365Z,100752.97
2023-01-13T04:40:09.901Z,100741.09
2023-01-13T04:41:16.462Z,100748.09
2023-01-13T04:42:23.734Z,100747.56
2023-01-13T04:43:34.533Z,100747.31
2023-01-13T04:44:41.317Z,100745.69
2023-01-13T04:45:47.844Z,100746.75
2023-01-13T04:46:52.208Z,100744.63
2023-01-13T04:47:57.389Z,100736.50
2023-01-13T04:49:01.305Z,100740.31
2023-01-13T04:50:09.008Z,100740.00
2023-01-13T04:51:17.409Z,100747.06
2023-01-13T04:52:25.027Z,100737.06
2023-01-13T04:53:32.102Z,100742.44
2023-01-13T04:54:40.125Z,100753.25
2023-01-13T04:55:50.864Z,100753.78
2023-01-13T04:57:08.617Z,100740.25
2023-01-13T04:58:15.758Z,100738.38
2023-01-13T04:59:25.359Z,100747.25
2023-01-13T05:00:47.033Z,100738.94
2023-01-13T05:01:50.947Z,100739.19
2023-01-13T05:02:58.049Z,100743.53
2023-01-13T05:04:12.913Z,100748.41
2023-01-13T05:05:22.730Z,100745.69
2023-01-13T05:06:38.833Z,100749.19
2023-01-13T05:07:45.341Z,100745.94
2023-01-13T05:08:55.639Z,100752.19
2023-01-13T05:09:59.327Z,100739.72
2023-01-13T05:11:33.322Z,100740.81
2023-01-13T05:13:00.181Z,100748.91
2023-01-13T05:14:24.815Z,100749.44
2023-01-13T05:15:59.547Z,100744.59
2023-01-13T05:17:15.785Z,100754.59
2023-01-13T05:18:27.212Z,100758.63
2023-01-13T05:19:42.067Z,100767.56
2023-01-13T05:20:53.926Z,100765.66
2023-01-13T05:22:20.162Z,100764.59
2023-01-13T05:23:48.333Z,100768.63
2023-01-13T05:25:15.293Z,100763.47
2023-01-13T05:26:20.405Z,100763.47
2023-01-13T05:27:27.703Z,100765.94
2023-01-13T05:28:36.331Z,100766.75
2023-01-13T05:29:41.475Z,100774.84
2023-01-13T05:30:51.240Z,100772.16
2023-01-13T05:31:58.011Z,100789.44
2023-01-13T05:33:19.089Z,100775.91
2023-01-13T05:34:27.508Z,100778.63
2023-01-13T05:35:42.713Z,100775.38
2023-01-13T05:36:50.198Z,100787.53
2023-01-13T05:37:59.410Z,100780.78
2023-01-13T05:39:53.403Z,100774.56
2023-01-13T05:41:20.787Z,100771.06
2023-01-13T05:42:43.452Z,100776.50
2023-01-13T05:43:55.918Z,100772.97
2023-01-13T05:45:03.319Z,100780.53
2023-01-13T05:46:13.455Z,100782.69
2023-01-13T05:47:23.266Z,100784.59
2023-01-13T05:48:37.839Z,100771.59
2023-01-13T05:49:42.317Z,100772.66
2023-01-13T05:50:51.198Z,100768.88
2023-01-13T05:51:55.258Z,100763.97
2023-01-13T05:53:02.286Z,100763.47
2023-01-13T05:54:10.978Z,100780.50
2023-01-13T05:55:22.002Z,100769.44
2023-01-13T05:56:27.278Z,100771.09
2023-01-13T05:57:31.595Z,100768.38
2023-01-13T05:58:36.062Z,100771.06
2023-01-13T05:59:40.672Z,100768.88
2023-01-13T06:00:53.767Z,100766.75
2023-01-13T06:02:00.128Z,100770.53
2023-01-13T06:03:06.885Z,100762.69
2023-01-13T06:04:10.225Z,100764.56
2023-01-13T06:05:19.796Z,100767.78
2023-01-13T06:06:29.522Z,100775.41
2023-01-13T06:07:36.848Z,100782.69
2023-01-13T06:09:07.713Z,100769.97
2023-01-13T06:10:10.694Z,100773.53
2023-01-13T06:11:17.824Z,100787.28
2023-01-13T06:12:24.024Z,100772.13
2023-01-13T06:13:37.843Z,100783.25
2023-01-13T06:14:53.342Z,100768.34
2023-01-13T06:16:07.143Z,100765.41
2023-01-13T06:17:19.906Z,100772.72
2023-01-13T06:18:38.358Z,100774.84
2023-01-13T06:21:19.802Z,100769.97
2023-01-13T06:22:58.868Z,100773.50
2023-01-13T06:26:25.038Z,100771.59
2023-01-13T06:27:37.121Z,100782.16
2023-01-13T06:28:44.571Z,100766.75
2023-01-13T06:29:49.585Z,100764.06
2023-01-13T06:31:00.423Z,100770.00
2023-01-13T06:32:42.339Z,100773.78
2023-01-13T06:35:23.126Z,100765.38
2023-01-13T08:11:09.056Z,100782.34
2023-01-13T08:12:30.928Z,100786.13
2023-01-13T08:15:19.468Z,100782.06
2023-01-13T08:17:02.152Z,100782.28
2023-01-13T08:18:08.010Z,100776.59
2023-01-13T08:19:39.619Z,100779.63
2023-01-13T08:20:57.327Z,100776.31
2023-01-13T08:22:37.158Z,100765.75
2023-01-13T08:23:52.289Z,100762.78
2023-01-13T08:25:16.494Z,100768.22
2023-01-13T08:26:28.942Z,100767.09
2023-01-13T08:27:35.464Z,100771.72
2023-01-13T08:28:49.083Z,100777.72
2023-01-13T08:30:10.739Z,100771.47
2023-01-13T08:31:27.350Z,100784.53
2023-01-13T08:35:04.736Z,100781.75
2023-01-13T08:41:20.424Z,100781.72
2023-01-13T09:01:33.348Z,100774.16
2023-01-13T09:04:42.236Z,100761.44
2023-01-13T09:05:56.197Z,100770.88
2023-01-13T09:08:48.082Z,100764.19
2023-01-13T09:11:59.479Z,100754.72
2023-01-13T09:13:14.959Z,100760.06
2023-01-13T09:14:22.843Z,100757.34
2023-01-13T09:15:25.909Z,100762.75
2023-01-13T09:16:28.577Z,100759.72
2023-01-13T09:17:31.268Z,100753.56
2023-01-13T09:18:33.802Z,100752.28
2023-01-13T09:19:37.143Z,100764.94
2023-01-13T09:20:44.744Z,100767.16
2023-01-13T09:21:47.595Z,100753.66
2023-01-13T09:22:51.528Z,100747.19
2023-01-13T09:23:57.462Z,100747.41
2023-01-13T09:25:04.764Z,100754.19
2023-01-13T09:26:10.429Z,100745.56
2023-01-13T09:27:16.206Z,100757.75
2023-01-13T09:28:22.595Z,100745.59
2023-01-13T09:29:27.964Z,100743.88
2023-01-13T09:30:32.779Z,100741.69
2023-01-13T09:31:36.110Z,100747.63
2023-01-13T09:32:51.471Z,100749.75
2023-01-13T09:36:32.448Z,100739.19
2023-01-13T09:37:43.751Z,100733.25
2023-01-13T09:38:51.821Z,100727.59
2023-01-13T09:40:02.314Z,100734.78
2023-01-13T09:41:45.575Z,100736.25
2023-01-13T09:43:48.814Z,100729.75
2023-01-13T09:45:19.117Z,100734.63
2023-01-13T09:46:58.581Z,100737.63
2023-01-13T09:48:53.682Z,100726.56
2023-01-13T09:50:17.334Z,100733.09
2023-01-13T09:53:13.429Z,100731.44
2023-01-13T10:14:32.960Z,100738.47
2023-01-13T10:51:14.531Z,100730.34
2023-01-13T10:57:03.969Z,100732.38
2023-01-13T11:16:08.437Z,100759.41
2023-01-13T12:15:37.623Z,100756.78
2023-01-13T12:27:12.965Z,100759.75
2023-01-13T12:30:04.174Z,100764.34
2023-01-13T12:32:07.210Z,100759.97
2023-01-13T12:37:59.714Z,100771.94
2023-01-13T12:40:00.176Z,100768.06
2023-01-13T12:42:28.503Z,100772.47
2023-01-13T12:45:52.238Z,100764.78
2023-01-13T12:47:58.211Z,100772.69
2023-01-13T12:49:54.195Z,100767.03
2023-01-13T12:59:23.755Z,100769.69
2023-01-13T13:48:28.095Z,100791.16
2023-01-13T13:50:07.665Z,100792.19
2023-01-13T13:51:28.481Z,100790.28
2023-01-13T13:53:02.226Z,100801.13
2023-01-13T13:54:22.414Z,100795.13
2023-01-13T13:57:48.904Z,100800.56
2023-01-13T13:59:26.538Z,100801.94
2023-01-13T14:01:05.553Z,100802.22
2023-01-13T14:02:36.996Z,100806.53
2023-01-13T14:04:05.590Z,100809.50
2023-01-13T14:05:37.139Z,100801.13
2023-01-13T14:06:54.750Z,100808.38
2023-01-13T14:10:04.042Z,100802.41
2023-01-13T14:11:57.941Z,100798.31
2023-01-13T14:13:18.157Z,100805.09
2023-01-13T14:14:33.268Z,100809.72
2023-01-13T14:16:58.917Z,100801.59
2023-01-13T14:18:20.083Z,100801.00
2023-01-13T14:19:35.981Z,100797.53
2023-01-13T14:20:42.252Z,100800.78
2023-01-13T14:21:52.168Z,100802.69
2023-01-13T14:23:04.684Z,100795.13
2023-01-13T14:24:20.716Z,100797.75
2023-01-13T14:25:50.983Z,100797.47
2023-01-13T14:27:22.869Z,100791.28
2023-01-13T14:28:44.669Z,100808.63
2023-01-13T14:30:05.036Z,100798.06
2023-01-13T14:31:19.611Z,100804.28
2023-01-13T14:32:36.892Z,100798.66
2023-01-13T14:33:46.512Z,100792.19
2023-01-13T14:35:12.767Z,100790.78
2023-01-13T14:36:44.581Z,100796.22
2023-01-13T14:38:05.865Z,100794.03
2023-01-13T14:39:44.230Z,100802.13
2023-01-13T14:42:49.094Z,100801.84
2023-01-13T14:44:21.583Z,100800.50
2023-01-13T14:47:10.087Z,100797.69
2023-01-13T14:50:13.221Z,100792.31
2023-01-13T14:52:07.478Z,100794.50
2023-01-13T15:00:26.839Z,100797.38
2023-01-13T15:09:55.281Z,100796.25
2023-01-13T15:16:14.831Z,100802.03
2023-01-13T15:21:43.205Z,100809.94
2023-01-13T18:02:26.944Z,100782.91
2023-01-13T18:05:22.917Z,100787.78
2023-01-13T18:06:27.800Z,100788.28
2023-01-13T18:07:38.834Z,100796.91
2023-01-13T18:08:43.377Z,100793.44
2023-01-13T18:13:31.173Z,100792.88
2023-01-13T18:14:46.349Z,100797.28
2023-01-13T18:16:19.133Z,100797.72
2023-01-13T18:17:59.242Z,100796.34
2023-01-13T18:19:42.970Z,100791.97
2023-01-13T18:22:50.409Z,100792.97
2023-01-13T18:29:27.523Z,100785.13
2023-01-13T18:30:36.938Z,100783.75
2023-01-13T18:31:47.822Z,100788.31
2023-01-13T18:35:01.669Z,100779.28
2023-01-13T18:36:13.127Z,100780.34
2023-01-13T18:37:22.778Z,100781.00
2023-01-13T18:38:27.220Z,100779.47
2023-01-13T18:39:43.018Z,100775.22
2023-01-13T18:47:24.195Z,100788.03
2023-01-13T18:48:32.087Z,100790.50
2023-01-13T18:49:37.905Z,100786.41
2023-01-13T18:50:42.527Z,100784.78
2023-01-13T18:51:51.558Z,100778.31
2023-01-13T18:53:02.712Z,100791.69
2023-01-13T18:54:07.705Z,100790.94
2023-01-13T18:55:11.798Z,100784.38
2023-01-13T18:56:16.500Z,100783.16
2023-01-13T18:57:21.858Z,100787.00
2023-01-13T18:58:38.502Z,100781.09
2023-01-13T18:59:44.147Z,100788.69
2023-01-13T19:00:47.611Z,100780.59
2023-01-13T19:01:52.634Z,100787.69
2023-01-13T19:04:23.049Z,100784.94
2023-01-13T19:05:41.409Z,100778.56
2023-01-13T19:06:53.946Z,100787.50
2023-01-13T19:08:00.029Z,100784.94
2023-01-13T19:09:11.725Z,100780.53
2023-01-13T19:10:18.221Z,100773.31
2023-01-13T19:11:26.399Z,100784.28
2023-01-13T19:12:36.197Z,100789.41
2023-01-13T19:13:45.030Z,100792.38
2023-01-13T19:14:52.833Z,100782.66
2023-01-13T19:15:58.090Z,100784.78
2023-01-13T19:17:19.109Z,100777.69
2023-01-13T19:18:27.205Z,100786.50
2023-01-13T19:19:32.649Z,100780.41
2023-01-13T19:20:42.947Z,100784.94
2023-01-13T19:21:49.208Z,100787.63
2023-01-13T19:23:00.256Z,100782.66
2023-01-13T19:24:13.193Z,100783.81
2023-01-13T19:25:19.705Z,100785.75
2023-01-13T19:28:22.896Z,100775.66
2023-01-13T19:29:27.381Z,100783.53
2023-01-13T19:30:31.119Z,100783.25
2023-01-13T19:31:37.483Z,100773.16
2023-01-13T19:32:43.988Z,100777.19
2023-01-13T19:33:48.169Z,100783.41
2023-01-13T19:34:55.325Z,100767.38
2023-01-13T19:35:59.345Z,100782.66
2023-01-13T19:37:07.017Z,100776.75
2023-01-13T19:38:10.910Z,100777.69
2023-01-13T19:39:14.508Z,100771.75
2023-01-13T19:40:20.402Z,100777.78
2023-01-13T19:41:41.961Z,100780.88
2023-01-13T19:43:04.289Z,100779.84
2023-01-13T19:44:30.248Z,100779.84
2023-01-13T19:45:35.798Z,100781.63
2023-01-13T19:46:42.406Z,100789.72
2023-01-13T19:49:13.233Z,100791.03
2023-01-13T19:50:20.774Z,100790.78
2023-01-13T19:51:31.809Z,100787.34
2023-01-13T19:52:36.492Z,100787.06
2023-01-13T19:53:42.864Z,100796.22
2023-01-13T19:54:50.767Z,100795.69
2023-01-13T19:56:00.373Z,100795.31
2023-01-13T19:57:07.808Z,100791.69
2023-01-13T19:58:11.051Z,100787.53
2023-01-13T19:59:24.675Z,100788.59
2023-01-13T20:00:46.338Z,100787.28
2023-01-13T20:02:53.284Z,100789.16
2023-01-13T20:04:03.625Z,100794.50
2023-01-13T20:05:09.922Z,100786.59
2023-01-13T20:06:15.560Z,100787.44
2023-01-13T20:07:22.733Z,100790.16
2023-01-13T20:08:25.812Z,100790.44
2023-01-13T20:09:36.577Z,100789.22
2023-01-13T20:10:40.984Z,100790.16
2023-01-13T20:11:45.273Z,100784.13
2023-01-13T20:12:52.373Z,100787.44
2023-01-13T20:14:05.345Z,100785.28
2023-01-13T20:15:09.614Z,100782.16
2023-01-13T20:16:18.784Z,100779.13
2023-01-13T20:17:30.701Z,100779.72
2023-01-13T20:18:41.903Z,100778.66
2023-01-13T20:19:48.018Z,100785.16
2023-01-13T20:20:54.456Z,100787.09
2023-01-13T20:21:59.314Z,100794.19
2023-01-13T20:23:08.510Z,100789.91
2023-01-13T20:24:37.112Z,100788.53
2023-01-13T20:25:46.191Z,100797.75
2023-01-13T20:26:57.299Z,100795.03
2023-01-13T20:28:09.224Z,100799.91
2023-01-13T20:29:15.779Z,100806.72
2023-01-13T20:30:26.488Z,100798.91
2023-01-13T20:31:33.144Z,100794.00
2023-01-13T20:32:39.152Z,100791.25
2023-01-13T20:33:44.823Z,100794.06
2023-01-13T20:34:55.980Z,100794.50
2023-01-13T20:36:00.531Z,100795.03
2023-01-13T20:37:06.500Z,100804.91
2023-01-13T20:38:10.960Z,100800.56
2023-01-13T20:39:25.235Z,100788.59
2023-01-13T20:40:30.726Z,100802.19
2023-01-13T20:41:53.005Z,100800.50
2023-01-13T20:42:59.345Z,100803.16
2023-01-13T20:44:03.976Z,100794.06
2023-01-13T20:45:08.386Z,100796.66
2023-01-13T20:46:21.106Z,100801.09
2023-01-13T20:47:31.469Z,100805.19
2023-01-13T20:48:37.165Z,100797.91
2023-01-13T20:49:50.879Z,100794.59
2023-01-13T20:51:02.124Z,100802.97
2023-01-13T20:52:10.916Z,100796.47
2023-01-13T20:53:15.152Z,100805.34
2023-01-13T20:54:26.914Z,100795.72
2023-01-13T20:55:30.252Z,100793.75
2023-01-13T20:56:35.050Z,100791.03
2023-01-13T20:57:58.185Z,100793.41
2023-01-13T20:59:02.791Z,100795.06
2023-01-13T21:00:15.469Z,100790.44
2023-01-13T21:01:19.798Z,100789.31
2023-01-13T21:02:24.910Z,100793.41
2023-01-13T21:03:28.426Z,100795.06
2023-01-13T21:04:34.478Z,100786.31
2023-01-13T21:05:38.997Z,100791.25
2023-01-13T21:06:43.794Z,100781.75
2023-01-13T21:07:48.499Z,100785.03
2023-01-13T21:08:56.093Z,100785.75
2023-01-13T21:09:59.192Z,100782.88
2023-01-13T21:11:08.798Z,100785.91
2023-01-13T21:12:35.065Z,100785.16
2023-01-13T21:13:59.169Z,100779.84
2023-01-13T21:15:25.694Z,100776.13
2023-01-13T21:16:31.185Z,100780.63
2023-01-13T21:17:57.624Z,100786.31
2023-01-13T21:19:11.710Z,100782.56
2023-01-13T21:20:19.115Z,100782.75
2023-01-13T21:21:22.960Z,100776.78
2023-01-13T21:22:31.862Z,100776.59
2023-01-13T21:23:39.675Z,100770.63
2023-01-13T21:24:47.517Z,100779.06
2023-01-13T21:25:53.986Z,100781.47
2023-01-13T21:27:01.024Z,100771.91
2023-01-13T21:28:08.026Z,100772.50
2023-01-13T21:29:13.429Z,100779.19
2023-01-13T21:30:18.208Z,100770.22
2023-01-13T21:31:21.578Z,100779.28
2023-01-13T21:32:25.382Z,100784.72
2023-01-13T21:33:32.081Z,100772.72
2023-01-13T21:34:35.707Z,100775.81
2023-01-13T21:35:41.869Z,100771.91
2023-01-13T21:36:46.038Z,100775.16
2023-01-13T21:37:52.154Z,100773.53
2023-01-13T21:39:00.568Z,100770.53
2023-01-13T21:40:07.378Z,100777.56
2023-01-13T21:41:14.595Z,100772.72
2023-01-13T21:42:37.888Z,100772.63
2023-01-13T21:43:59.621Z,100780.22
2023-01-13T21:45:27.152Z,100770.47
2023-01-13T21:46:49.021Z,100779.50
2023-01-13T21:47:52.724Z,100781.38
2023-01-13T21:48:57.197Z,100777.25
2023-01-13T21:50:02.935Z,100776.00
2023-01-13T21:51:11.090Z,100777.88
2023-01-13T21:52:19.280Z,100779.19
2023-01-13T21:53:23.200Z,100766.97
2023-01-13T21:54:27.113Z,100765.19
2023-01-13T21:55:30.766Z,100775.50
2023-01-13T21:56:36.089Z,100772.72
2023-01-13T21:57:40.328Z,100779.19
2023-01-13T21:58:46.212Z,100781.84
2023-01-13T21:59:57.671Z,100783.78
2023-01-13T22:01:04.834Z,100772.72
2023-01-13T22:02:31.301Z,100765.34
2023-01-13T22:03:54.327Z,100770.69
2023-01-13T22:05:04.829Z,100772.00
2023-01-13T22:06:08.332Z,100768.25
2023-01-13T22:07:12.220Z,100762.91
2023-01-13T22:08:19.140Z,100770.38
2023-01-13T22:09:22.091Z,100768.72
2023-01-13T22:10:30.067Z,100769.91
2023-01-13T22:11:37.271Z,100757.06
2023-01-13T22:12:44.137Z,100777.25
2023-01-13T22:14:05.540Z,100763.63
2023-01-13T22:15:12.133Z,100766.72
2023-01-13T22:16:18.384Z,100763.25
2023-01-13T22:17:29.848Z,100763.53
2023-01-13T22:18:35.094Z,100759.72
2023-01-13T22:19:42.362Z,100765.44
2023-01-13T22:20:49.028Z,100774.47
2023-01-13T22:21:53.547Z,100766.25
2023-01-13T22:22:59.767Z,100764.06
2023-01-13T22:24:07.851Z,100769.97
2023-01-13T22:25:15.410Z,100778.16
2023-01-13T22:26:21.475Z,100772.72
2023-01-13T22:27:30.508Z,100767.31
2023-01-13T22:28:41.021Z,100764.59
2023-01-13T22:29:45.372Z,100760.31
2023-01-13T22:30:55.660Z,100761.34
2023-01-13T22:32:05.277Z,100757.50
2023-01-13T22:33:08.136Z,100757.59
2023-01-13T22:34:14.275Z,100762.19
2023-01-13T22:35:21.491Z,100758.06
2023-01-13T22:36:25.961Z,100755.97
2023-01-13T22:37:31.724Z,100760.69
2023-01-13T22:38:35.300Z,100768.34
2023-01-13T22:39:41.780Z,100777.03
2023-01-13T22:40:46.124Z,100768.34
2023-01-13T22:41:54.924Z,100769.38
2023-01-13T22:42:59.027Z,100767.31
2023-01-13T22:44:10.291Z,100771.59
2023-01-13T22:45:17.235Z,100765.75
2023-01-13T22:46:30.124Z,100773.28
2023-01-13T22:47:34.143Z,100770.94
2023-01-13T22:48:41.122Z,100769.97
2023-01-13T22:50:06.626Z,100763.47
2023-01-13T22:51:21.621Z,100775.28
2023-01-13T22:52:29.260Z,100768.91
2023-01-13T22:53:34.900Z,100778.09
2023-01-13T22:54:47.310Z,100765.75
2023-01-13T22:56:05.465Z,100774.00
2023-01-13T22:57:11.054Z,100776.97
2023-01-13T22:58:16.294Z,100773.41
2023-01-13T22:59:22.880Z,100780.81
2023-01-13T23:00:27.382Z,100774.81
2023-01-13T23:01:33.499Z,100768.22
2023-01-13T23:02:39.980Z,100767.69
2023-01-13T23:03:46.819Z,100768.41
2023-01-13T23:04:50.934Z,100769.84
2023-01-13T23:05:59.373Z,100767.31
2023-01-13T23:07:05.717Z,100769.72
2023-01-13T23:08:10.560Z,100776.66
2023-01-13T23:09:16.056Z,100767.44
2023-01-13T23:10:21.581Z,100769.13
2023-01-13T23:11:28.463Z,100767.19
2023-01-13T23:12:31.951Z,100774.81
2023-01-13T23:13:40.426Z,100771.00
2023-01-13T23:14:45.162Z,100762.50
2023-01-13T23:15:53.252Z,100773.72
2023-01-13T23:16:58.220Z,100767.69
2023-01-13T23:18:03.365Z,100774.72
2023-01-13T23:19:09.345Z,100769.91
2023-01-13T23:20:12.825Z,100779.84
2023-01-13T23:21:24.755Z,100780.72
2023-01-13T23:22:31.655Z,100767.91
2023-01-13T23:23:42.250Z,100766.53
2023-01-13T23:24:50.640Z,100780.63
2023-01-13T23:26:00.300Z,100774.38
2023-01-13T23:27:36.759Z,100777.94
2023-01-13T23:28:40.378Z,100773.47
2023-01-13T23:29:44.670Z,100772.66
2023-01-13T23:30:53.525Z,100779.06
2023-01-13T23:32:03.266Z,100774.50